createdAt,value
2018-11-25T06:12:16.645Z,17.97
2018-11-25T06:14:45.415Z,19.33
2018-11-25T06:17:14.144Z,17.20
2018-11-25T06:19:43.381Z,13.67
2018-11-25T06:22:12.533Z,14.00
2018-11-25T06:24:41.702Z,10.63
2018-11-25T06:27:11.134Z,10.13
2018-11-25T06:29:40.399Z,21.17
2018-11-25T06:32:09.223Z,18.37
2018-11-25T06:34:38.334Z,17.97
2018-11-25T06:37:07.070Z,22.63
2018-11-25T06:39:36.150Z,10.87
2018-11-25T06:42:04.876Z,21.80
2018-11-25T06:44:33.282Z,14.10
2018-11-25T06:47:02.391Z,17.03
2018-11-25T06:49:31.898Z,22.83
2018-11-25T06:52:01.545Z,18.63
2018-11-25T06:54:30.839Z,16.17
2018-11-25T06:57:00.347Z,19.33
2018-11-25T06:59:29.975Z,10.07
2018-11-25T07:01:59.373Z,14.80
2018-11-25T07:04:28.080Z,17.23
2018-11-25T07:06:57.217Z,17.43
2018-11-25T07:09:26.042Z,18.57
2018-11-25T07:11:55.183Z,11.03
2018-11-25T07:14:24.354Z,19.47
2018-11-25T07:16:53.506Z,22.43
2018-11-25T07:19:22.701Z,20.93
2018-11-25T07:21:51.508Z,21.33
2018-11-25T07:24:20.524Z,21.33
2018-11-25T07:26:49.619Z,20.40
2018-11-25T07:29:18.796Z,18.03
2018-11-25T07:31:47.510Z,11.33
2018-11-25T07:34:16.983Z,11.70
2018-11-25T07:36:46.138Z,20.47
2018-11-25T07:39:15.690Z,16.10
2018-11-25T07:41:45.122Z,15.17
2018-11-25T07:44:13.846Z,21.77
2018-11-25T07:46:42.971Z,11.37
2018-11-25T07:49:12.021Z,13.30
2018-11-25T07:51:42.588Z,14.43
2018-11-25T07:54:11.586Z,9.83
2018-11-25T07:56:40.390Z,20.43
2018-11-25T07:59:09.795Z,17.70
2018-11-25T08:01:39.326Z,21.50
2018-11-25T08:04:08.543Z,12.97
2018-11-25T08:06:37.963Z,18.07
2018-11-25T08:09:09.986Z,14.43
2018-11-25T08:11:40.350Z,12.30
2018-11-25T08:14:11.681Z,13.03
2018-11-25T08:16:41.119Z,18.30
2018-11-25T08:19:10.571Z,20.00
2018-11-25T08:21:39.980Z,13.40
2018-11-25T08:24:09.188Z,9.73
2018-11-25T08:26:40.211Z,17.27
2018-11-25T08:29:09.759Z,14.30
2018-11-25T08:31:39.182Z,12.90
2018-11-25T08:34:09.407Z,14.13
2018-11-25T08:36:39.587Z,19.17
2018-11-25T08:39:09.634Z,9.53
2018-11-25T08:41:39.136Z,18.83
2018-11-25T08:44:08.746Z,10.47
2018-11-25T08:46:39.991Z,20.10
2018-11-25T08:49:08.886Z,19.90
2018-11-25T08:51:37.950Z,19.80
2018-11-25T08:54:07.020Z,19.97
2018-11-25T08:56:36.515Z,19.67
2018-11-25T08:59:08.122Z,19.33
2018-11-25T09:01:37.130Z,18.03
2018-11-25T09:04:08.152Z,18.57
2018-11-25T09:06:37.699Z,18.77
2018-11-25T09:09:08.705Z,18.50
2018-11-25T09:11:38.122Z,18.63
2018-11-25T09:14:07.126Z,17.43
2018-11-25T09:16:37.679Z,18.17
2018-11-25T09:19:06.111Z,16.93
2018-11-25T09:21:35.499Z,17.63
2018-11-25T09:24:06.888Z,16.57
2018-11-25T09:26:35.952Z,16.33
2018-11-25T09:29:04.971Z,16.47
2018-11-25T09:31:34.706Z,15.87
2018-11-25T09:34:03.463Z,15.70
2018-11-25T09:36:33.336Z,15.77
2018-11-25T09:39:02.569Z,15.20
2018-11-25T09:41:31.548Z,14.83
2018-11-25T09:44:01.055Z,12.93
2018-11-25T09:46:30.134Z,15.47
2018-11-25T09:48:59.244Z,15.07
2018-11-25T09:51:28.703Z,15.87
2018-11-25T09:53:57.983Z,12.00
2018-11-25T09:56:27.575Z,14.53
2018-11-25T09:58:57.210Z,14.87
2018-11-25T10:01:27.476Z,14.60
2018-11-25T10:03:56.960Z,14.60
2018-11-25T10:06:26.338Z,15.23
2018-11-25T10:08:55.198Z,14.67
2018-11-25T10:11:24.291Z,14.30
2018-11-25T10:13:53.822Z,14.27
2018-11-25T10:16:24.966Z,13.73
2018-11-25T10:18:54.463Z,9.87
2018-11-25T10:21:23.147Z,8.53
2018-11-25T10:23:52.343Z,15.00
2018-11-25T10:26:21.755Z,14.10
2018-11-25T10:28:51.335Z,11.73
2018-11-25T10:31:21.751Z,14.50
2018-11-25T10:33:51.022Z,15.70
2018-11-25T10:36:20.442Z,14.37
2018-11-25T10:38:49.881Z,12.73
2018-11-25T10:41:19.362Z,13.40
2018-11-25T10:43:48.887Z,13.53
2018-11-25T10:46:19.149Z,12.30
2018-11-25T10:48:48.259Z,12.90
2018-11-25T10:51:17.821Z,13.30
2018-11-25T10:53:46.705Z,10.90
2018-11-25T10:56:16.816Z,12.70
2018-11-25T10:58:45.574Z,11.53
2018-11-25T11:01:19.915Z,11.07
2018-11-25T11:03:56.360Z,11.93
2018-11-25T11:06:33.053Z,12.50
2018-11-25T11:09:02.162Z,12.20
2018-11-25T11:11:31.632Z,12.10
2018-11-25T11:14:01.814Z,12.20
2018-11-25T11:16:31.588Z,11.97
2018-11-25T11:19:01.240Z,12.20
2018-11-25T11:21:30.210Z,9.23
2018-11-25T11:23:59.623Z,12.63
2018-11-25T11:26:29.027Z,10.60
2018-11-25T11:28:58.566Z,11.70
2018-11-25T11:31:28.058Z,11.03
2018-11-25T11:33:57.787Z,9.97
2018-11-25T11:36:27.279Z,11.40
2018-11-25T11:38:56.677Z,10.30
2018-11-25T11:41:26.234Z,12.00
2018-11-25T11:43:55.394Z,9.83
2018-11-25T11:46:24.910Z,12.70
2018-11-25T11:48:55.310Z,10.87
2018-11-25T11:51:25.870Z,12.10
2018-11-25T11:53:53.935Z,12.17
2018-11-25T11:56:23.463Z,12.83
2018-11-25T11:58:52.319Z,12.37
2018-11-25T12:01:21.918Z,13.43
2018-11-25T12:03:51.575Z,12.73
2018-11-25T12:06:20.967Z,14.13
2018-11-25T12:08:50.456Z,10.90
2018-11-25T12:11:19.951Z,15.47
2018-11-25T12:13:49.564Z,15.20
2018-11-25T12:16:18.727Z,15.90
2018-11-25T12:18:48.203Z,16.57
2018-11-25T12:21:17.610Z,14.73
2018-11-25T12:23:46.674Z,14.97
2018-11-25T12:26:15.244Z,15.60
2018-11-25T12:28:44.324Z,16.90
2018-11-25T12:31:13.362Z,10.13
2018-11-25T12:33:42.710Z,16.63
2018-11-25T12:36:12.205Z,16.50
2018-11-25T12:38:41.764Z,14.23
2018-11-25T12:41:10.759Z,16.37
2018-11-25T12:43:40.218Z,17.90
2018-11-25T12:46:09.209Z,8.60
2018-11-25T12:48:38.607Z,16.93
2018-11-25T12:51:08.012Z,17.90
2018-11-25T12:53:37.206Z,15.67
2018-11-25T12:56:06.212Z,17.30
2018-11-25T12:58:35.599Z,17.43
2018-11-25T13:01:05.171Z,17.87
2018-11-25T13:03:36.334Z,18.17
2018-11-25T13:06:05.795Z,19.17
2018-11-25T13:08:35.571Z,19.43
2018-11-25T13:11:05.678Z,18.27
2018-11-25T13:13:35.098Z,18.87
2018-11-25T13:16:05.060Z,18.80
2018-11-25T13:18:35.763Z,19.77
2018-11-25T13:21:03.858Z,20.40
2018-11-25T13:23:33.507Z,21.00
2018-11-25T13:26:04.491Z,22.07
2018-11-25T13:28:33.886Z,21.40
2018-11-25T13:31:03.930Z,22.83
2018-11-25T13:33:32.660Z,20.73
2018-11-25T13:36:02.074Z,22.90
2018-11-25T13:38:31.617Z,23.47
2018-11-25T13:41:01.024Z,17.23
2018-11-25T13:43:30.110Z,24.20
2018-11-25T13:45:59.695Z,23.13
2018-11-25T13:48:29.153Z,19.00
2018-11-25T13:51:09.414Z,25.00
2018-11-25T13:53:39.172Z,23.70
2018-11-25T13:56:08.390Z,19.97
2018-11-25T13:58:38.482Z,21.17
2018-11-25T14:01:07.437Z,23.07
2018-11-25T14:03:39.382Z,21.20
2018-11-25T14:06:13.136Z,22.23
2018-11-25T14:08:42.903Z,21.73
2018-11-25T14:11:14.728Z,22.63
2018-11-25T14:13:44.295Z,20.43
2018-11-25T14:16:20.091Z,23.10
2018-11-25T14:18:50.538Z,21.80
2018-11-25T14:21:20.862Z,22.30
2018-11-25T14:23:50.399Z,22.63
2018-11-25T14:26:23.429Z,12.97
2018-11-25T14:28:52.408Z,18.33
2018-11-25T14:31:21.967Z,18.23
2018-11-25T14:33:51.130Z,21.80
2018-11-25T14:36:21.371Z,22.50
2018-11-25T14:38:50.812Z,22.33
2018-11-25T14:41:19.983Z,23.97
2018-11-25T14:43:49.546Z,22.70
2018-11-25T14:46:19.182Z,21.93
2018-11-25T14:48:48.374Z,21.47
2018-11-25T14:51:18.992Z,20.10
2018-11-25T14:53:48.679Z,18.87
2018-11-25T14:56:19.275Z,23.30
2018-11-25T14:58:48.771Z,20.30
2018-11-25T15:01:19.211Z,23.07
2018-11-25T15:03:49.732Z,22.33
2018-11-25T15:06:19.205Z,17.97
2018-11-25T15:08:49.046Z,15.97
2018-11-25T15:11:18.222Z,22.13
2018-11-25T15:13:47.037Z,15.97
2018-11-25T15:16:16.746Z,23.57
2018-11-25T15:18:46.326Z,9.90
2018-11-25T15:21:16.024Z,22.40
2018-11-25T15:23:45.550Z,23.63
2018-11-25T15:26:17.091Z,21.20
2018-11-25T15:28:46.327Z,10.97
2018-11-25T15:31:15.945Z,15.43
2018-11-25T15:33:45.043Z,10.87
2018-11-25T15:36:14.499Z,21.23
2018-11-25T15:38:43.631Z,11.73
2018-11-25T15:41:13.102Z,11.83
2018-11-25T15:43:43.463Z,17.70
2018-11-25T15:46:12.975Z,15.37
2018-11-25T15:48:41.761Z,19.47
2018-11-25T15:51:11.363Z,24.27
2018-11-25T15:53:40.942Z,17.93
2018-11-25T15:56:10.471Z,17.30
2018-11-25T15:58:41.017Z,22.73
2018-11-25T16:01:10.762Z,24.03
2018-11-25T16:03:41.075Z,17.13
2018-11-25T16:06:15.535Z,30.33
2018-11-25T16:08:44.601Z,21.07
2018-11-25T16:11:13.713Z,21.40
2018-11-25T16:13:44.176Z,16.07
2018-11-25T16:16:13.678Z,21.43
2018-11-25T16:18:42.744Z,25.30
2018-11-25T16:21:12.147Z,23.60
2018-11-25T16:23:41.996Z,19.37
2018-11-25T16:26:17.582Z,23.97
2018-11-25T16:28:47.194Z,20.27
2018-11-25T16:31:16.640Z,20.47
2018-11-25T16:33:46.465Z,20.10
2018-11-25T16:36:15.558Z,21.20
2018-11-25T16:38:44.985Z,18.43
2018-11-25T16:41:14.693Z,18.73
2018-11-25T16:43:44.747Z,21.90
2018-11-25T16:46:14.181Z,15.30
2018-11-25T16:48:43.608Z,12.17
2018-11-25T16:51:12.740Z,15.67
2018-11-25T16:53:42.859Z,15.77
2018-11-25T16:56:11.979Z,14.80
2018-11-25T16:58:41.422Z,13.77
2018-11-25T17:01:10.955Z,14.90
2018-11-25T17:03:40.418Z,15.80
2018-11-25T17:06:10.135Z,14.63
2018-11-25T17:08:40.882Z,15.47
2018-11-25T17:11:11.601Z,14.87
2018-11-25T17:13:41.731Z,15.00
2018-11-25T17:16:11.293Z,14.93
2018-11-25T17:18:42.838Z,14.13
2018-11-25T17:21:12.088Z,14.47
2018-11-25T17:23:40.914Z,19.43
2018-11-25T17:26:09.580Z,17.03
2018-11-25T17:28:38.600Z,17.00
2018-11-25T17:31:07.747Z,18.47
2018-11-25T17:33:37.231Z,19.40
2018-11-25T17:36:06.358Z,21.10
2018-11-25T17:38:36.125Z,21.63
2018-11-25T17:41:05.894Z,17.03
2018-11-25T17:43:35.415Z,22.07
2018-11-25T17:46:04.202Z,15.43
2018-11-25T17:48:34.113Z,14.03
2018-11-25T17:51:04.131Z,13.23
2018-11-25T17:53:33.679Z,13.33
2018-11-25T17:56:03.018Z,14.23
2018-11-25T17:58:33.404Z,14.27
2018-11-25T18:01:05.016Z,20.40
2018-11-25T18:03:35.630Z,25.33
2018-11-25T18:06:04.791Z,22.47
2018-11-25T18:08:35.753Z,20.23
2018-11-25T18:11:05.385Z,16.23
2018-11-25T18:13:37.891Z,24.30
2018-11-25T18:16:07.189Z,17.00
2018-11-25T18:18:50.274Z,26.83
2018-11-25T18:21:24.237Z,24.67
2018-11-25T18:23:54.847Z,28.37
2018-11-25T18:26:24.421Z,24.37
2018-11-25T18:28:53.839Z,18.50
2018-11-25T18:31:23.277Z,27.03
2018-11-25T18:33:52.727Z,25.17
2018-11-25T18:36:22.243Z,24.43
2018-11-25T18:38:51.477Z,29.27
2018-11-25T18:41:21.868Z,29.40
2018-11-25T18:43:50.051Z,27.20
2018-11-25T18:46:21.182Z,31.57
2018-11-25T18:48:51.441Z,21.60
2018-11-25T18:51:20.902Z,19.20
2018-11-25T18:53:50.098Z,22.80
2018-11-25T18:56:19.591Z,29.13
2018-11-25T18:58:49.019Z,23.70
2018-11-25T19:01:25.298Z,24.00
2018-11-25T19:03:54.555Z,28.20
2018-11-25T19:06:24.404Z,24.73
2018-11-25T19:08:54.090Z,24.13
2018-11-25T19:11:23.502Z,20.57
2018-11-25T19:13:52.694Z,21.00
2018-11-25T19:16:22.093Z,22.13
2018-11-25T19:18:52.010Z,25.63
2018-11-25T19:21:20.938Z,24.40
2018-11-25T19:23:54.809Z,25.67
2018-11-25T19:26:24.213Z,24.70
2018-11-25T19:28:54.537Z,21.63
2018-11-25T19:31:23.940Z,24.93
2018-11-25T19:33:55.084Z,26.07
2018-11-25T19:36:24.955Z,22.63
2018-11-25T19:38:54.398Z,26.87
2018-11-25T19:41:24.067Z,22.00
2018-11-25T19:43:53.822Z,28.13
2018-11-25T19:46:23.673Z,26.00
2018-11-25T19:48:53.812Z,27.73
2018-11-25T19:51:23.359Z,25.13
2018-11-25T19:53:53.211Z,29.80
2018-11-25T19:56:22.493Z,25.60
2018-11-25T19:58:57.199Z,29.73
2018-11-25T20:01:27.304Z,15.63
2018-11-25T20:03:56.943Z,28.57
2018-11-25T20:06:29.816Z,29.43
2018-11-25T20:08:59.682Z,29.57
2018-11-25T20:11:29.315Z,30.80
2018-11-25T20:13:58.898Z,23.47
2018-11-25T20:16:33.675Z,27.53
2018-11-25T20:19:03.186Z,30.97
2018-11-25T20:21:37.950Z,29.47
2018-11-25T20:24:07.843Z,31.03
2018-11-25T20:26:37.585Z,34.47
2018-11-25T20:29:07.640Z,18.03
2018-11-25T20:31:37.413Z,17.27
2018-11-25T20:34:08.781Z,24.47
2018-11-25T20:36:40.579Z,31.23
2018-11-25T20:39:16.722Z,20.30
2018-11-25T20:41:52.591Z,23.97
2018-11-25T20:44:22.709Z,26.17
2018-11-25T20:47:01.847Z,29.57
2018-11-25T20:49:31.227Z,28.07
2018-11-25T20:52:06.628Z,30.37
2018-11-25T20:54:37.481Z,30.90
2018-11-25T20:57:06.662Z,31.07
2018-11-25T20:59:36.146Z,31.60
2018-11-25T21:02:05.942Z,26.23
2018-11-25T21:04:36.883Z,23.80
2018-11-25T21:07:06.574Z,30.37
2018-11-25T21:09:36.289Z,30.03
2018-11-25T21:12:05.692Z,27.60
2018-11-25T21:14:35.602Z,30.60
2018-11-25T21:17:05.434Z,30.63
2018-11-25T21:19:34.939Z,28.57
2018-11-25T21:22:04.748Z,25.47
2018-11-25T21:24:34.765Z,24.60
2018-11-25T21:27:06.488Z,30.50
2018-11-25T21:29:36.380Z,29.17
2018-11-25T21:32:06.558Z,30.43
2018-11-25T21:34:36.235Z,29.97
2018-11-25T21:37:06.158Z,28.00
2018-11-25T21:39:36.710Z,19.20
2018-11-25T21:42:07.754Z,29.87
2018-11-25T21:44:37.573Z,25.90
2018-11-25T21:47:09.840Z,28.70
2018-11-25T21:49:40.062Z,26.53
2018-11-25T21:52:15.914Z,27.30
2018-11-25T21:54:45.751Z,28.43
